createdAt,value
2023-03-10T00:01:13.695Z,11.20
2023-03-10T00:03:41.062Z,11.20
2023-03-10T00:06:10.407Z,11.20
2023-03-10T00:08:38.098Z,11.20
2023-03-10T00:11:05.900Z,11.20
2023-03-10T00:13:33.421Z,11.20
2023-03-10T00:16:00.727Z,11.20
2023-03-10T00:18:28.247Z,11.20
2023-03-10T00:20:55.516Z,11.20
2023-03-10T00:23:23.458Z,11.20
2023-03-10T00:25:59.036Z,11.20
2023-03-10T00:28:27.413Z,11.20
2023-03-10T00:31:02.492Z,11.10
2023-03-10T00:33:31.794Z,11.10
2023-03-10T00:36:16.385Z,11.10
2023-03-10T00:38:44.815Z,11.10
2023-03-10T00:41:14.888Z,11.10
2023-03-10T00:43:42.716Z,11.10
2023-03-10T00:46:10.608Z,11.10
2023-03-10T00:48:38.155Z,11.20
2023-03-10T00:51:06.479Z,11.20
2023-03-10T00:53:38.281Z,11.20
2023-03-10T00:56:12.081Z,11.20
2023-03-10T00:58:40.734Z,11.20
2023-03-10T01:01:20.385Z,11.20
2023-03-10T01:03:49.672Z,11.20
2023-03-10T01:06:19.428Z,11.10
2023-03-10T01:08:46.912Z,11.20
2023-03-10T01:11:16.037Z,11.10
2023-03-10T01:13:44.157Z,11.10
2023-03-10T01:16:11.981Z,11.10
2023-03-10T01:18:40.084Z,11.10
2023-03-10T01:21:10.262Z,11.10
2023-03-10T01:23:37.552Z,11.10
2023-03-10T01:26:04.876Z,11.10
2023-03-10T01:28:32.291Z,11.10
2023-03-10T01:30:59.677Z,11.10
2023-03-10T01:33:27.133Z,11.10
2023-03-10T01:35:54.346Z,11.10
2023-03-10T01:38:21.624Z,11.10
2023-03-10T01:40:50.551Z,11.20
2023-03-10T01:43:21.925Z,11.20
2023-03-10T01:45:52.046Z,11.20
2023-03-10T01:48:21.657Z,11.20
2023-03-10T01:50:53.574Z,11.30
2023-03-10T01:53:21.769Z,11.30
2023-03-10T01:56:00.147Z,11.30
2023-03-10T01:58:34.460Z,11.30
2023-03-10T02:01:02.228Z,11.30
2023-03-10T02:03:52.195Z,11.40
2023-03-10T02:06:21.650Z,11.40
2023-03-10T02:08:56.465Z,11.50
2023-03-10T02:11:24.304Z,11.50
2023-03-10T02:13:52.706Z,11.60
2023-03-10T02:16:20.756Z,11.60
2023-03-10T02:18:49.448Z,11.70
2023-03-10T02:21:24.802Z,11.70
2023-03-10T02:24:06.663Z,11.80
2023-03-10T02:27:01.910Z,11.80
2023-03-10T02:29:52.440Z,11.90
2023-03-10T02:32:25.341Z,11.90
2023-03-10T02:34:52.919Z,11.90
2023-03-10T02:37:28.029Z,11.90
2023-03-10T02:39:56.311Z,11.90
2023-03-10T02:42:27.778Z,11.90
2023-03-10T02:44:55.747Z,12.00
2023-03-10T02:47:23.331Z,12.00
2023-03-10T02:49:50.694Z,12.00
2023-03-10T02:52:46.915Z,12.00
2023-03-10T02:55:16.615Z,12.00
2023-03-10T02:57:44.192Z,12.00
2023-03-10T03:00:13.019Z,12.00
2023-03-10T03:02:40.915Z,12.00
2023-03-10T03:05:08.570Z,12.00
2023-03-10T03:07:36.235Z,12.00
2023-03-10T03:10:04.647Z,12.00
2023-03-10T03:12:31.970Z,12.00
2023-03-10T03:14:59.302Z,12.00
2023-03-10T03:17:28.022Z,11.90
2023-03-10T03:19:55.395Z,11.90
2023-03-10T03:22:23.347Z,11.90
2023-03-10T03:24:50.670Z,11.90
2023-03-10T03:27:18.057Z,11.90
2023-03-10T03:29:46.015Z,11.80
2023-03-10T03:32:14.040Z,11.80
2023-03-10T03:34:41.431Z,11.80
2023-03-10T03:37:09.239Z,11.80
2023-03-10T03:39:39.253Z,11.80
2023-03-10T03:42:10.590Z,11.80
2023-03-10T03:44:44.896Z,11.80
2023-03-10T03:47:13.055Z,11.70
2023-03-10T03:49:40.558Z,11.70
2023-03-10T03:52:08.451Z,11.80
2023-03-10T03:54:36.081Z,11.70
2023-03-10T03:57:03.738Z,11.70
2023-03-10T03:59:31.111Z,11.70
2023-03-10T04:01:58.517Z,11.70
2023-03-10T04:04:26.498Z,11.70
2023-03-10T04:06:54.425Z,11.70
2023-03-10T04:09:22.395Z,11.70
2023-03-10T04:11:49.873Z,11.70
2023-03-10T04:14:17.540Z,11.70
2023-03-10T04:16:44.992Z,11.70
2023-03-10T04:19:13.123Z,11.60
2023-03-10T04:21:43.918Z,11.60
2023-03-10T04:24:12.094Z,11.60
2023-03-10T04:26:39.323Z,11.60
2023-03-10T04:29:07.625Z,11.60
2023-03-10T04:31:37.185Z,11.60
2023-03-10T04:34:05.100Z,11.50
2023-03-10T04:36:32.855Z,11.60
2023-03-10T04:39:02.246Z,11.60
2023-03-10T04:41:32.062Z,11.60
2023-03-10T04:43:59.716Z,11.50
2023-03-10T04:46:27.965Z,11.50
2023-03-10T04:48:56.451Z,11.50
2023-03-10T04:51:23.855Z,11.50
2023-03-10T04:53:53.313Z,11.50
2023-03-10T04:56:21.120Z,11.50
2023-03-10T04:58:48.804Z,11.50
2023-03-10T05:01:16.341Z,11.50
2023-03-10T05:03:50.446Z,11.40
2023-03-10T05:06:20.514Z,11.40
2023-03-10T05:09:17.316Z,11.40
2023-03-10T05:11:45.206Z,11.40
2023-03-10T05:14:14.566Z,11.40
2023-03-10T05:16:42.523Z,11.30
2023-03-10T05:19:09.830Z,11.40
2023-03-10T05:21:37.140Z,11.40
2023-03-10T05:24:05.225Z,11.30
2023-03-10T05:26:34.930Z,11.30
2023-03-10T05:29:03.073Z,11.30
2023-03-10T05:31:44.742Z,11.30
2023-03-10T05:34:17.656Z,11.30
2023-03-10T05:36:46.231Z,11.30
2023-03-10T05:39:15.684Z,11.30
2023-03-10T05:41:46.765Z,11.30
2023-03-10T05:44:14.260Z,11.30
2023-03-10T05:46:42.006Z,11.30
2023-03-10T05:49:09.581Z,11.30
2023-03-10T05:51:37.535Z,11.30
2023-03-10T05:54:06.222Z,11.30
2023-03-10T05:56:33.826Z,11.30
2023-03-10T05:59:03.934Z,11.30
2023-03-10T06:01:34.702Z,11.30
2023-03-10T06:04:02.320Z,11.30
2023-03-10T06:06:30.234Z,11.30
2023-03-10T06:08:57.834Z,11.40
2023-03-10T06:11:25.484Z,11.30
2023-03-10T06:13:53.083Z,11.40
2023-03-10T06:16:20.523Z,11.40
2023-03-10T06:18:47.917Z,11.40
2023-03-10T06:21:15.316Z,11.40
2023-03-10T06:23:42.733Z,11.40
2023-03-10T06:26:16.127Z,11.40
2023-03-10T06:28:45.803Z,11.40
2023-03-10T06:31:19.514Z,11.50
2023-03-10T06:33:47.334Z,11.50
2023-03-10T06:36:15.707Z,11.50
2023-03-10T06:38:43.755Z,11.50
2023-03-10T06:41:11.842Z,11.50
2023-03-10T06:43:40.177Z,11.60
2023-03-10T06:46:09.624Z,11.60
2023-03-10T06:48:38.355Z,11.60
2023-03-10T06:51:16.274Z,11.60
2023-03-10T06:53:43.770Z,11.60
2023-03-10T06:56:17.150Z,11.60
2023-03-10T06:58:45.040Z,11.70
2023-03-10T07:01:39.175Z,11.70
2023-03-10T07:04:06.670Z,11.70
2023-03-10T07:06:34.354Z,11.70
2023-03-10T07:09:01.854Z,11.70
2023-03-10T07:11:29.329Z,11.80
2023-03-10T07:13:58.184Z,11.70
2023-03-10T07:16:25.730Z,11.80
2023-03-10T07:18:53.176Z,11.80
2023-03-10T07:21:21.504Z,11.80
2023-03-10T07:23:49.625Z,11.80
2023-03-10T07:26:18.718Z,11.80
2023-03-10T07:28:46.659Z,11.80
2023-03-10T07:31:15.110Z,11.80
2023-03-10T07:33:42.955Z,11.70
2023-03-10T07:36:13.226Z,11.80
2023-03-10T07:38:40.812Z,11.80
2023-03-10T07:41:10.155Z,11.80
2023-03-10T07:43:37.988Z,11.80
2023-03-10T07:46:07.744Z,11.90
2023-03-10T07:48:35.373Z,11.90
2023-03-10T07:51:02.852Z,11.90
2023-03-10T07:53:30.941Z,12.00
2023-03-10T07:55:58.441Z,12.10
2023-03-10T07:58:25.978Z,12.10
2023-03-10T08:00:55.828Z,12.20
2023-03-10T08:03:24.668Z,12.20
2023-03-10T08:05:52.396Z,12.30
2023-03-10T08:08:20.426Z,12.30
2023-03-10T08:10:47.918Z,12.30
2023-03-10T08:13:15.747Z,12.40
2023-03-10T08:15:43.191Z,12.40
2023-03-10T08:18:10.684Z,12.40
2023-03-10T08:20:40.574Z,12.40
2023-03-10T08:23:08.129Z,12.50
2023-03-10T08:25:35.628Z,12.50
2023-03-10T08:28:03.244Z,12.60
2023-03-10T08:30:30.656Z,12.70
2023-03-10T08:32:58.702Z,12.90
2023-03-10T08:35:26.269Z,13.10
2023-03-10T08:37:55.313Z,13.30
2023-03-10T08:40:23.002Z,13.40
2023-03-10T08:42:50.549Z,13.60
2023-03-10T08:45:18.291Z,13.70
2023-03-10T08:47:45.693Z,13.90
2023-03-10T08:50:13.562Z,14.20
2023-03-10T08:52:41.550Z,14.30
2023-03-10T08:55:09.227Z,14.50
2023-03-10T08:57:36.596Z,14.70
2023-03-10T09:00:06.339Z,14.80
2023-03-10T09:02:33.887Z,15.00
2023-03-10T09:05:01.373Z,15.20
2023-03-10T09:07:28.807Z,15.50
2023-03-10T09:09:56.281Z,15.70
2023-03-10T09:12:23.667Z,16.10
2023-03-10T09:14:51.051Z,16.40
2023-03-10T09:17:18.679Z,16.70
2023-03-10T09:19:45.966Z,17.00
2023-03-10T09:22:13.299Z,17.30
2023-03-10T09:24:40.543Z,17.50
2023-03-10T09:27:07.773Z,17.60
2023-03-10T09:29:43.037Z,17.60
2023-03-10T09:32:10.944Z,17.80
2023-03-10T09:34:38.689Z,17.80
2023-03-10T09:37:08.426Z,17.80
2023-03-10T09:39:35.958Z,17.80
2023-03-10T09:42:38.039Z,17.70
2023-03-10T09:45:24.562Z,17.60
2023-03-10T09:48:17.888Z,17.60
2023-03-10T09:50:53.038Z,17.60
2023-03-10T09:53:40.587Z,17.50
2023-03-10T09:56:20.330Z,17.50
2023-03-10T09:58:56.450Z,17.40
2023-03-10T10:01:29.648Z,17.30
2023-03-10T10:04:02.899Z,17.10
2023-03-10T10:06:37.410Z,17.00
2023-03-10T10:09:11.117Z,16.90
2023-03-10T10:11:39.956Z,16.80
2023-03-10T10:14:29.359Z,16.70
2023-03-10T10:17:11.477Z,16.70
2023-03-10T10:19:40.449Z,16.70
2023-03-10T10:22:31.968Z,16.60
2023-03-10T10:25:25.973Z,16.60
2023-03-10T10:27:55.860Z,16.60
2023-03-10T10:30:38.576Z,16.60
2023-03-10T10:33:14.007Z,16.60
2023-03-10T10:36:00.244Z,16.50
2023-03-10T10:38:31.780Z,16.50
2023-03-10T10:41:16.329Z,16.40
2023-03-10T10:43:45.557Z,16.30
2023-03-10T10:46:15.364Z,16.30
2023-03-10T10:48:48.286Z,16.30
2023-03-10T10:51:27.674Z,16.30
2023-03-10T10:54:00.166Z,16.40
2023-03-10T10:56:28.744Z,16.40
2023-03-10T10:59:19.206Z,16.50
2023-03-10T11:01:56.453Z,16.60
2023-03-10T11:04:25.878Z,16.60
2023-03-10T11:07:07.678Z,16.60
2023-03-10T11:09:35.417Z,16.60
2023-03-10T11:12:20.121Z,16.60
2023-03-10T11:15:19.839Z,16.50
2023-03-10T11:17:53.253Z,16.40
2023-03-10T11:20:42.609Z,16.30
2023-03-10T11:23:28.503Z,16.20
2023-03-10T11:26:19.773Z,16.10
2023-03-10T11:29:00.188Z,15.90
2023-03-10T11:31:46.514Z,15.60
2023-03-10T11:34:19.575Z,15.30
2023-03-10T11:36:56.673Z,15.00
2023-03-10T11:39:39.919Z,14.70
2023-03-10T11:42:30.626Z,14.30
2023-03-10T11:45:21.636Z,14.00
2023-03-10T11:48:20.003Z,13.70
2023-03-10T11:50:54.836Z,13.50
2023-03-10T11:53:34.697Z,13.30
2023-03-10T11:56:02.873Z,13.10
2023-03-10T11:58:40.662Z,13.10
2023-03-10T12:01:11.763Z,13.00
2023-03-10T12:03:47.807Z,13.10
2023-03-10T12:06:26.653Z,13.20
2023-03-10T12:08:56.247Z,13.40
2023-03-10T12:11:27.036Z,13.60
2023-03-10T12:14:01.844Z,13.80
2023-03-10T12:16:35.422Z,14.00
2023-03-10T12:19:05.273Z,14.10
2023-03-10T12:21:33.269Z,14.20
2023-03-10T12:24:02.627Z,14.30
2023-03-10T12:27:01.146Z,14.30
2023-03-10T12:29:37.777Z,14.30
2023-03-10T12:32:05.754Z,14.20
2023-03-10T12:34:33.522Z,14.30
2023-03-10T12:37:10.058Z,14.30
2023-03-10T12:39:44.572Z,14.40
2023-03-10T12:42:29.001Z,14.40
2023-03-10T12:45:28.454Z,14.50
2023-03-10T12:48:16.782Z,14.60
2023-03-10T12:51:02.522Z,14.70
2023-03-10T12:53:38.812Z,14.80
2023-03-10T12:56:12.592Z,14.90
2023-03-10T12:58:47.038Z,15.00
2023-03-10T13:01:20.210Z,15.10
2023-03-10T13:03:52.143Z,15.20
2023-03-10T13:06:30.371Z,15.20
2023-03-10T13:09:01.831Z,15.30
2023-03-10T13:11:36.118Z,15.20
2023-03-10T13:14:14.007Z,15.20
2023-03-10T13:16:52.023Z,15.10
2023-03-10T13:19:21.499Z,15.00
2023-03-10T13:21:50.458Z,15.00
2023-03-10T13:24:42.268Z,15.10
2023-03-10T13:27:25.063Z,15.20
2023-03-10T13:30:13.207Z,15.20
2023-03-10T13:32:40.744Z,15.30
2023-03-10T13:35:31.540Z,15.20
2023-03-10T13:38:20.684Z,15.20
2023-03-10T13:40:57.901Z,15.10
2023-03-10T13:43:38.483Z,15.10
2023-03-10T13:46:18.958Z,15.10
2023-03-10T13:48:47.510Z,15.10
2023-03-10T13:51:20.066Z,15.10
2023-03-10T13:53:52.444Z,15.10
2023-03-10T13:56:38.863Z,15.10
2023-03-10T13:59:13.114Z,15.00
2023-03-10T14:01:46.583Z,14.90
2023-03-10T14:04:19.593Z,14.80
2023-03-10T14:07:08.129Z,14.70
2023-03-10T14:09:35.867Z,14.60
2023-03-10T14:12:03.856Z,14.60
2023-03-10T14:14:38.396Z,14.40
2023-03-10T14:17:09.759Z,14.30
2023-03-10T14:19:42.867Z,14.20
2023-03-10T14:22:28.974Z,14.10
2023-03-10T14:24:57.942Z,14.10
2023-03-10T14:27:26.232Z,14.10
2023-03-10T14:29:56.345Z,14.10
2023-03-10T14:32:24.893Z,14.10
2023-03-10T14:34:52.495Z,14.10
2023-03-10T14:37:19.922Z,14.10
2023-03-10T14:39:47.597Z,14.00
2023-03-10T14:42:22.104Z,13.90
2023-03-10T14:44:50.203Z,13.90
2023-03-10T14:47:18.339Z,13.80
2023-03-10T14:49:46.169Z,13.80
2023-03-10T14:52:16.371Z,13.70
2023-03-10T14:54:44.236Z,13.70
2023-03-10T14:57:13.072Z,13.70
2023-03-10T14:59:40.673Z,13.60
2023-03-10T15:02:21.769Z,13.60
2023-03-10T15:04:49.589Z,13.50
2023-03-10T15:07:17.778Z,13.40
2023-03-10T15:09:45.587Z,13.40
2023-03-10T15:12:17.716Z,13.40
2023-03-10T15:14:54.031Z,13.30
2023-03-10T15:17:22.254Z,13.30
2023-03-10T15:19:49.638Z,13.20
2023-03-10T15:22:17.010Z,13.20
2023-03-10T15:24:44.430Z,13.10
2023-03-10T15:27:13.251Z,13.10
2023-03-10T15:29:40.625Z,13.00
2023-03-10T15:32:08.114Z,12.90
2023-03-10T15:34:35.543Z,12.90
2023-03-10T15:37:03.059Z,12.80
2023-03-10T15:39:32.241Z,12.70
2023-03-10T15:42:00.665Z,12.70
2023-03-10T15:44:28.203Z,12.70
2023-03-10T15:46:55.878Z,12.60
2023-03-10T15:49:23.357Z,12.60
2023-03-10T15:51:50.764Z,12.50
2023-03-10T15:54:18.207Z,12.40
2023-03-10T15:56:45.657Z,12.30
2023-03-10T15:59:13.252Z,12.20
2023-03-10T16:01:40.654Z,12.10
2023-03-10T16:04:08.082Z,12.10
2023-03-10T16:06:35.462Z,12.10
2023-03-10T16:09:02.913Z,12.00
2023-03-10T16:11:30.500Z,12.00
2023-03-10T16:13:57.989Z,12.00
2023-03-10T16:16:26.316Z,11.90
2023-03-10T16:18:54.004Z,11.90
2023-03-10T16:21:22.005Z,11.80
2023-03-10T16:23:49.309Z,11.80
2023-03-10T16:26:16.462Z,11.70
2023-03-10T16:28:52.745Z,11.70
2023-03-10T16:31:22.352Z,11.60
2023-03-10T16:33:53.897Z,11.60
2023-03-10T16:36:23.592Z,11.60
2023-03-10T16:38:53.523Z,11.60
2023-03-10T16:41:22.272Z,11.50
2023-03-10T16:43:50.370Z,11.50
2023-03-10T16:46:24.873Z,11.50
2023-03-10T16:48:54.463Z,11.40
2023-03-10T16:51:40.020Z,11.40
2023-03-10T16:54:10.981Z,11.40
2023-03-10T16:56:44.220Z,11.30
2023-03-10T16:59:18.471Z,11.30
2023-03-10T17:01:46.999Z,11.30
2023-03-10T17:04:14.568Z,11.30
2023-03-10T17:06:42.284Z,11.20
2023-03-10T17:09:11.140Z,11.20
2023-03-10T17:11:46.358Z,11.20
2023-03-10T17:14:15.628Z,11.10
2023-03-10T17:16:44.572Z,11.10
2023-03-10T17:19:15.057Z,11.10
2023-03-10T17:21:45.813Z,11.10
2023-03-10T17:24:15.379Z,11.00
2023-03-10T17:26:43.102Z,11.00
2023-03-10T17:29:10.891Z,11.00
2023-03-10T17:31:38.807Z,11.00
2023-03-10T17:34:10.649Z,10.90
2023-03-10T17:36:38.697Z,10.90
2023-03-10T17:39:06.579Z,10.90
2023-03-10T17:41:36.055Z,10.80
2023-03-10T17:44:04.699Z,10.80
2023-03-10T17:46:32.594Z,10.70
2023-03-10T17:49:00.442Z,10.70
2023-03-10T17:51:30.556Z,10.60
2023-03-10T17:54:00.957Z,10.60
2023-03-10T17:56:28.799Z,10.50
2023-03-10T17:58:57.066Z,10.50
2023-03-10T18:01:27.273Z,10.50
2023-03-10T18:03:56.589Z,10.40
2023-03-10T18:06:27.792Z,10.40
2023-03-10T18:08:56.705Z,10.40
2023-03-10T18:11:25.244Z,10.40
2023-03-10T18:13:53.219Z,10.40
2023-03-10T18:16:24.020Z,10.40
2023-03-10T18:18:51.788Z,10.40
2023-03-10T18:21:19.919Z,10.30
2023-03-10T18:23:47.882Z,10.30
2023-03-10T18:26:18.086Z,10.20
2023-03-10T18:28:45.685Z,10.10
2023-03-10T18:31:26.116Z,10.10
2023-03-10T18:33:53.770Z,10.00
2023-03-10T18:36:23.211Z,10.00
2023-03-10T18:38:51.485Z,10.00
2023-03-10T18:41:20.654Z,9.90
2023-03-10T18:43:49.614Z,9.90
2023-03-10T18:46:17.220Z,9.80
2023-03-10T18:48:44.602Z,9.80
2023-03-10T18:51:13.621Z,9.80
2023-03-10T18:53:41.091Z,9.80
2023-03-10T18:56:08.632Z,9.70
2023-03-10T18:58:37.110Z,9.70
2023-03-10T19:01:10.444Z,9.60
2023-03-10T19:03:38.002Z,9.60
2023-03-10T19:06:05.889Z,9.50
2023-03-10T19:08:35.961Z,9.50
2023-03-10T19:11:03.658Z,9.50
2023-03-10T19:13:31.252Z,9.50
2023-03-10T19:15:58.751Z,9.50
2023-03-10T19:18:26.137Z,9.50
2023-03-10T19:21:00.102Z,9.50
2023-03-10T19:23:28.363Z,9.50
2023-03-10T19:25:56.221Z,9.50
2023-03-10T19:28:23.782Z,9.40
2023-03-10T19:30:51.238Z,9.50
2023-03-10T19:33:18.794Z,9.40
2023-03-10T19:35:46.495Z,9.50
2023-03-10T19:38:14.004Z,9.40
2023-03-10T19:40:45.176Z,9.40
2023-03-10T19:43:12.598Z,9.30
2023-03-10T19:45:40.062Z,9.30
2023-03-10T19:48:07.471Z,9.30
2023-03-10T19:50:34.834Z,9.20
2023-03-10T19:53:02.353Z,9.20
2023-03-10T19:55:29.847Z,9.10
2023-03-10T19:57:57.343Z,9.10
2023-03-10T20:00:30.761Z,9.10
2023-03-10T20:02:58.686Z,9.10
2023-03-10T20:05:26.896Z,9.10
2023-03-10T20:07:54.801Z,9.10
2023-03-10T20:10:22.134Z,9.10
2023-03-10T20:12:51.276Z,9.00
2023-03-10T20:15:18.806Z,9.00
2023-03-10T20:17:46.564Z,8.90
2023-03-10T20:20:15.277Z,8.90
2023-03-10T20:22:45.498Z,8.90
2023-03-10T20:25:16.926Z,8.80
2023-03-10T20:27:46.059Z,8.80
2023-03-10T20:30:18.335Z,8.70
2023-03-10T20:32:45.768Z,8.70
2023-03-10T20:35:14.222Z,8.70
2023-03-10T20:37:42.020Z,8.60
2023-03-10T20:40:12.200Z,8.60
2023-03-10T20:42:39.955Z,8.60
2023-03-10T20:45:09.209Z,8.60
2023-03-10T20:47:36.796Z,8.60
2023-03-10T20:50:06.355Z,8.60
2023-03-10T20:52:38.050Z,8.60
2023-03-10T20:55:07.357Z,8.60
2023-03-10T20:57:35.013Z,8.60
2023-03-10T21:00:04.128Z,8.70
2023-03-10T21:02:31.766Z,8.70
2023-03-10T21:04:59.466Z,8.60
2023-03-10T21:07:26.712Z,8.60
2023-03-10T21:09:53.946Z,8.60
2023-03-10T21:12:21.614Z,8.60
2023-03-10T21:14:48.841Z,8.70
2023-03-10T21:17:16.058Z,8.70
2023-03-10T21:19:43.751Z,8.60
2023-03-10T21:22:11.164Z,8.60
2023-03-10T21:24:38.710Z,8.50
2023-03-10T21:27:06.184Z,8.50
2023-03-10T21:29:34.718Z,8.40
2023-03-10T21:32:02.278Z,8.30
2023-03-10T21:34:31.496Z,8.10
2023-03-10T21:36:59.143Z,8.00
2023-03-10T21:39:26.797Z,7.90
2023-03-10T21:41:54.192Z,7.80
2023-03-10T21:44:21.504Z,7.60
2023-03-10T21:46:50.203Z,7.50
2023-03-10T21:49:17.704Z,7.30
2023-03-10T21:51:44.967Z,7.20
2023-03-10T21:54:12.321Z,6.90
2023-03-10T21:56:39.896Z,6.80
2023-03-10T21:59:07.431Z,6.70
2023-03-10T22:01:34.924Z,6.60
2023-03-10T22:04:02.461Z,6.50
2023-03-10T22:06:29.853Z,6.40
2023-03-10T22:08:57.124Z,6.30
2023-03-10T22:11:24.578Z,6.20
2023-03-10T22:13:53.293Z,6.10
2023-03-10T22:16:20.769Z,6.10
2023-03-10T22:18:49.302Z,6.00
2023-03-10T22:21:17.655Z,6.00
2023-03-10T22:23:45.157Z,5.90
2023-03-10T22:26:13.574Z,5.90
2023-03-10T22:28:41.068Z,5.70
2023-03-10T22:31:09.861Z,5.60
2023-03-10T22:33:37.392Z,5.60
2023-03-10T22:36:07.437Z,5.60
2023-03-10T22:38:34.905Z,5.60
2023-03-10T22:41:02.364Z,5.60
2023-03-10T22:43:29.943Z,5.60
2023-03-10T22:45:59.235Z,5.50
2023-03-10T22:48:26.687Z,5.50
2023-03-10T22:50:54.062Z,5.40
2023-03-10T22:53:21.510Z,5.40
2023-03-10T22:55:50.066Z,5.30
2023-03-10T22:58:17.570Z,5.30
2023-03-10T23:00:46.262Z,5.30
2023-03-10T23:03:15.253Z,5.20
2023-03-10T23:05:45.063Z,5.20
2023-03-10T23:08:13.396Z,5.20
2023-03-10T23:10:41.558Z,5.10
2023-03-10T23:13:14.028Z,5.10
2023-03-10T23:15:42.685Z,5.00
2023-03-10T23:18:10.484Z,4.90
2023-03-10T23:20:41.751Z,4.90
2023-03-10T23:23:11.404Z,4.90
2023-03-10T23:25:41.854Z,4.90
2023-03-10T23:28:10.749Z,4.90
2023-03-10T23:30:40.362Z,4.80
2023-03-10T23:33:08.128Z,4.80
2023-03-10T23:35:35.727Z,4.80
2023-03-10T23:38:05.534Z,4.80
2023-03-10T23:40:34.525Z,4.80
2023-03-10T23:43:04.282Z,4.80
2023-03-10T23:45:34.682Z,4.80
2023-03-10T23:48:02.621Z,4.80
2023-03-10T23:50:32.883Z,4.80
2023-03-10T23:53:01.090Z,4.70
2023-03-10T23:55:33.062Z,4.70
2023-03-10T23:58:00.645Z,4.70
